Time;durP1;ratioP1;P1;durP2;ratioP2;P2;SDS_P1;SDS_P2;PMS_P1;PMS_P2;Temp;Humidity;BMP_temperature;BMP_pressure;BME280_temperature;BME280_humidity;BME280_pressure;Samples;Min_cycle;Max_cycle;Signal;HPM_P1;HPM_P2
2023/08/17 00:00:18;;;;;;;;;;;19.20;99.90;;;;;;5033236;28;19921;-79
2023/08/17 00:02:46;;;;;;;;;;;19.10;99.90;;;;;;5033235;28;19921;-80
2023/08/17 00:05:13;;;;;;;;;;;19.10;99.90;;;;;;5035236;28;20449;-78
2023/08/17 00:07:41;;;;;;;;;;;19.10;99.90;;;;;;5033625;28;20299;-78
2023/08/17 00:10:09;;;;;;;;;;;19.00;99.90;;;;;;5030644;28;19925;-78
2023/08/17 00:12:37;;;;;;;;;;;19.10;99.90;;;;;;5030696;28;19921;-77
2023/08/17 00:15:06;;;;;;;;;;;19.00;99.90;;;;;;5033284;28;20398;-78
2023/08/17 00:17:35;;;;;;;;;;;19.00;99.90;;;;;;5033966;28;20410;-78
2023/08/17 00:20:04;;;;;;;;;;;19.00;99.90;;;;;;5032606;28;19931;-77
2023/08/17 00:22:32;;;;;;;;;;;19.00;99.90;;;;;;5032133;28;20469;-77
2023/08/17 00:25:00;;;;;;;;;;;19.00;99.90;;;;;;5032561;28;19928;-77
2023/08/17 00:27:28;;;;;;;;;;;19.10;99.90;;;;;;5032749;28;19921;-77
2023/08/17 00:29:56;;;;;;;;;;;19.10;99.90;;;;;;5030334;28;19944;-77
2023/08/17 00:32:24;;;;;;;;;;;19.10;99.90;;;;;;5033534;28;20007;-78
2023/08/17 00:34:53;;;;;;;;;;;19.10;99.90;;;;;;5030247;28;20405;-76
2023/08/17 00:37:21;;;;;;;;;;;19.10;99.90;;;;;;5027567;28;20280;-77
2023/08/17 00:39:48;;;;;;;;;;;19.00;99.90;;;;;;5032186;28;19982;-77
2023/08/17 00:42:16;;;;;;;;;;;19.00;99.90;;;;;;5030497;28;19921;-77
2023/08/17 00:44:44;;;;;;;;;;;19.00;99.90;;;;;;5030423;28;19929;-77
2023/08/17 00:47:12;;;;;;;;;;;19.10;99.90;;;;;;5033288;28;20331;-77
2023/08/17 00:49:40;;;;;;;;;;;19.10;99.90;;;;;;5030008;28;19925;-76
2023/08/17 00:52:10;;;;;;;;;;;19.10;99.90;;;;;;5031636;28;19960;-76
2023/08/17 00:54:38;;;;;;;;;;;19.10;99.90;;;;;;5031661;28;19921;-77
2023/08/17 00:57:06;;;;;;;;;;;19.00;99.90;;;;;;5031606;28;19925;-77
2023/08/17 00:59:34;;;;;;;;;;;19.00;99.90;;;;;;5032657;28;19925;-77
2023/08/17 01:02:04;;;;;;;;;;;19.00;99.90;;;;;;5031317;28;20012;-77
2023/08/17 01:04:32;;;;;;;;;;;19.00;99.90;;;;;;5033504;28;19929;-77
2023/08/17 01:07:00;;;;;;;;;;;19.00;99.90;;;;;;5031180;28;19927;-74
2023/08/17 01:09:29;;;;;;;;;;;19.00;99.90;;;;;;5032371;28;20350;-77
2023/08/17 01:12:01;;;;;;;;;;;18.90;99.90;;;;;;5030772;28;19928;-76
2023/08/17 01:14:32;;;;;;;;;;;19.00;99.90;;;;;;5031495;28;19921;-77
2023/08/17 01:17:02;;;;;;;;;;;18.90;99.90;;;;;;5032297;28;19971;-77
2023/08/17 01:19:30;;;;;;;;;;;19.00;99.90;;;;;;5028809;28;20513;-77
2023/08/17 01:22:03;;;;;;;;;;;19.00;99.90;;;;;;5031363;28;19921;-78
2023/08/17 01:24:33;;;;;;;;;;;19.00;99.90;;;;;;5031861;28;19921;-77
2023/08/17 01:27:00;;;;;;;;;;;18.90;99.90;;;;;;5032297;28;20292;-77
2023/08/17 01:29:28;;;;;;;;;;;18.90;99.90;;;;;;5031268;28;19928;-77
2023/08/17 01:32:02;;;;;;;;;;;18.90;99.90;;;;;;5030175;28;20354;-77
2023/08/17 01:34:33;;;;;;;;;;;18.90;99.90;;;;;;5025427;28;19929;-77
2023/08/17 01:37:02;;;;;;;;;;;18.80;99.90;;;;;;5031624;28;19925;-77
2023/08/17 01:39:35;;;;;;;;;;;18.80;99.90;;;;;;5031137;28;19940;-77
2023/08/17 01:42:04;;;;;;;;;;;18.70;99.90;;;;;;5031690;28;19925;-77
2023/08/17 01:44:32;;;;;;;;;;;18.60;99.90;;;;;;5030975;28;19921;-77
2023/08/17 01:47:00;;;;;;;;;;;18.70;99.90;;;;;;5029982;28;19921;-76
2023/08/17 01:49:28;;;;;;;;;;;18.60;99.90;;;;;;5031723;28;19944;-78
2023/08/17 01:51:56;;;;;;;;;;;18.60;99.90;;;;;;5031792;28;20257;-79
2023/08/17 01:54:24;;;;;;;;;;;18.50;99.90;;;;;;5030627;28;19934;-79
2023/08/17 01:56:53;;;;;;;;;;;18.50;99.90;;;;;;5031106;28;19975;-77
2023/08/17 01:59:21;;;;;;;;;;;18.40;99.90;;;;;;5031170;28;19924;-79
2023/08/17 02:01:48;;;;;;;;;;;18.30;99.90;;;;;;5029132;28;20319;-78
2023/08/17 02:04:16;;;;;;;;;;;18.30;99.90;;;;;;5029782;28;19968;-77
2023/08/17 02:06:44;;;;;;;;;;;18.30;99.90;;;;;;5027605;28;19936;-78
2023/08/17 02:09:12;;;;;;;;;;;18.30;99.90;;;;;;5030140;28;19921;-78
2023/08/17 02:11:40;;;;;;;;;;;18.30;99.90;;;;;;5032026;28;19921;-79
2023/08/17 02:14:09;;;;;;;;;;;18.30;99.90;;;;;;5032076;28;19921;-78
2023/08/17 02:16:37;;;;;;;;;;;18.30;99.90;;;;;;5032306;28;19921;-78
2023/08/17 02:19:05;;;;;;;;;;;18.30;99.90;;;;;;5031754;28;19921;-77
2023/08/17 02:21:32;;;;;;;;;;;18.30;99.90;;;;;;5031828;28;19921;-76
2023/08/17 02:24:00;;;;;;;;;;;18.30;99.90;;;;;;5032145;28;19928;-78
2023/08/17 02:26:28;;;;;;;;;;;18.30;99.90;;;;;;5032017;28;19928;-76
2023/08/17 02:28:56;;;;;;;;;;;18.30;99.90;;;;;;5031718;28;20388;-75
2023/08/17 02:31:25;;;;;;;;;;;18.30;99.90;;;;;;5031863;28;19924;-77
2023/08/17 02:33:53;;;;;;;;;;;18.30;99.90;;;;;;5031947;28;19927;-77
2023/08/17 02:36:20;;;;;;;;;;;18.30;99.90;;;;;;5031902;28;19929;-77
2023/08/17 02:38:48;;;;;;;;;;;18.30;99.90;;;;;;5026605;28;20289;-77
2023/08/17 02:41:16;;;;;;;;;;;18.20;99.90;;;;;;5032126;28;21155;-77
2023/08/17 02:43:44;;;;;;;;;;;18.20;99.90;;;;;;5028641;28;19921;-79
2023/08/17 02:46:12;;;;;;;;;;;18.20;99.90;;;;;;5028760;28;20379;-79
2023/08/17 02:48:41;;;;;;;;;;;18.20;99.90;;;;;;5028549;28;19921;-79
2023/08/17 02:51:09;;;;;;;;;;;18.30;99.90;;;;;;5030135;28;19921;-79
2023/08/17 02:53:37;;;;;;;;;;;18.20;99.90;;;;;;5031113;28;20011;-79
2023/08/17 02:56:04;;;;;;;;;;;18.20;99.90;;;;;;5030581;28;20347;-78
2023/08/17 02:58:32;;;;;;;;;;;18.20;99.90;;;;;;5029043;28;19921;-79
2023/08/17 03:01:03;;;;;;;;;;;18.20;99.90;;;;;;5026566;28;19924;-78
2023/08/17 03:03:30;;;;;;;;;;;18.20;99.90;;;;;;5026919;28;19928;-79
2023/08/17 03:06:00;;;;;;;;;;;18.10;99.90;;;;;;5029892;28;20009;-79
2023/08/17 03:08:27;;;;;;;;;;;18.10;99.90;;;;;;5026528;28;19933;-79
2023/08/17 03:10:55;;;;;;;;;;;18.10;99.90;;;;;;5017070;28;19921;-79
2023/08/17 03:13:23;;;;;;;;;;;18.20;99.90;;;;;;5017717;28;19921;-79
2023/08/17 03:15:51;;;;;;;;;;;18.10;99.90;;;;;;5029068;28;19972;-79
2023/08/17 03:18:19;;;;;;;;;;;18.10;99.90;;;;;;5018882;28;19928;-79
2023/08/17 03:20:46;;;;;;;;;;;18.10;99.90;;;;;;5024775;28;19921;-80
2023/08/17 03:23:15;;;;;;;;;;;18.00;99.90;;;;;;5016028;28;19921;-81
2023/08/17 03:25:45;;;;;;;;;;;18.10;99.90;;;;;;5023530;28;19921;-81
2023/08/17 03:28:13;;;;;;;;;;;18.00;99.90;;;;;;5018662;28;19928;-79
2023/08/17 03:30:41;;;;;;;;;;;18.00;99.90;;;;;;5029828;28;19932;-80
2023/08/17 03:33:09;;;;;;;;;;;17.90;99.90;;;;;;5029729;28;20415;-80
2023/08/17 03:35:37;;;;;;;;;;;17.90;99.90;;;;;;5030864;28;19928;-80
2023/08/17 03:38:05;;;;;;;;;;;17.90;99.90;;;;;;5030690;28;19928;-79
2023/08/17 03:40:34;;;;;;;;;;;17.90;99.90;;;;;;5032130;28;19921;-80
2023/08/17 03:43:02;;;;;;;;;;;17.90;99.90;;;;;;5031465;28;19921;-77
2023/08/17 03:45:31;;;;;;;;;;;17.90;99.90;;;;;;5030999;28;19921;-77
2023/08/17 03:47:59;;;;;;;;;;;17.80;99.90;;;;;;5031167;28;19928;-76
2023/08/17 03:50:27;;;;;;;;;;;17.80;99.90;;;;;;5030517;28;19931;-76
2023/08/17 03:52:54;;;;;;;;;;;17.70;99.90;;;;;;5037559;28;19921;-77
2023/08/17 03:55:22;;;;;;;;;;;17.70;99.90;;;;;;5042835;28;19921;-78
2023/08/17 03:57:51;;;;;;;;;;;17.70;99.90;;;;;;5038909;28;19927;-78
2023/08/17 04:00:19;;;;;;;;;;;17.70;99.90;;;;;;5030093;28;19932;-79
2023/08/17 04:02:47;;;;;;;;;;;17.60;99.90;;;;;;5030585;28;19921;-78
2023/08/17 04:05:15;;;;;;;;;;;17.60;99.90;;;;;;5029525;28;19987;-78
2023/08/17 04:07:42;;;;;;;;;;;17.60;99.90;;;;;;5030547;28;19921;-78
2023/08/17 04:10:10;;;;;;;;;;;17.70;99.90;;;;;;5032797;28;20256;-78
2023/08/17 04:12:38;;;;;;;;;;;17.70;99.90;;;;;;5034200;28;19925;-78
2023/08/17 04:15:08;;;;;;;;;;;17.70;99.90;;;;;;5034119;28;19929;-78
2023/08/17 04:17:35;;;;;;;;;;;17.60;99.90;;;;;;5034222;28;19921;-78
2023/08/17 04:20:04;;;;;;;;;;;17.70;99.90;;;;;;5087677;22;19975;-67
2023/08/17 04:22:32;;;;;;;;;;;17.60;99.90;;;;;;5032797;28;20012;-67
2023/08/17 04:25:00;;;;;;;;;;;17.70;99.90;;;;;;5033860;28;19975;-67
2023/08/17 04:27:30;;;;;;;;;;;17.70;99.90;;;;;;5033707;28;19920;-68
2023/08/17 04:29:58;;;;;;;;;;;17.60;99.90;;;;;;5009059;28;19921;-68
2023/08/17 04:32:27;;;;;;;;;;;17.60;99.90;;;;;;5013645;28;19929;-66
2023/08/17 04:34:55;;;;;;;;;;;17.70;99.90;;;;;;5013705;28;20412;-67
2023/08/17 04:37:23;;;;;;;;;;;17.60;99.90;;;;;;5013712;28;20094;-66
2023/08/17 04:39:51;;;;;;;;;;;17.60;99.90;;;;;;5013412;28;19956;-66
2023/08/17 04:42:19;;;;;;;;;;;17.70;99.90;;;;;;5013848;28;19935;-66
2023/08/17 04:44:47;;;;;;;;;;;17.70;99.90;;;;;;5013770;28;19967;-66
2023/08/17 04:47:15;;;;;;;;;;;17.70;99.90;;;;;;5013875;28;20330;-66
2023/08/17 04:49:44;;;;;;;;;;;17.70;99.90;;;;;;5013333;28;20392;-67
2023/08/17 04:52:12;;;;;;;;;;;17.70;99.90;;;;;;5013826;28;19925;-68
2023/08/17 04:54:39;;;;;;;;;;;17.70;99.90;;;;;;5013497;28;20048;-67
2023/08/17 04:57:07;;;;;;;;;;;17.70;99.90;;;;;;5014003;28;19921;-67
2023/08/17 04:59:35;;;;;;;;;;;17.70;99.90;;;;;;5005723;28;20265;-69
2023/08/17 05:02:03;;;;;;;;;;;17.60;99.90;;;;;;5013883;28;19929;-67
2023/08/17 05:04:31;;;;;;;;;;;17.70;99.90;;;;;;5012346;28;20277;-67
2023/08/17 05:07:00;;;;;;;;;;;17.60;99.90;;;;;;5006513;28;19997;-68
2023/08/17 05:10:53;;;;;;;;;;;17.60;99.90;;;;;;5088542;28;19920;-66
2023/08/17 05:13:20;;;;;;;;;;;17.70;99.90;;;;;;5077495;28;20277;-64
2023/08/17 05:15:48;;;;;;;;;;;17.70;99.90;;;;;;5077784;28;19928;-66
2023/08/17 05:18:16;;;;;;;;;;;17.70;99.90;;;;;;5077330;28;20345;-67
2023/08/17 05:20:44;;;;;;;;;;;17.70;99.90;;;;;;5076362;28;19924;-67
2023/08/17 05:23:12;;;;;;;;;;;17.80;99.90;;;;;;5071333;28;19931;-65
2023/08/17 05:25:39;;;;;;;;;;;17.80;99.90;;;;;;5071740;28;19940;-67
2023/08/17 05:28:08;;;;;;;;;;;17.80;99.90;;;;;;5077067;28;19925;-67
2023/08/17 05:30:36;;;;;;;;;;;17.80;99.90;;;;;;5076398;28;19982;-67
2023/08/17 05:33:04;;;;;;;;;;;17.90;99.90;;;;;;5081432;28;19925;-67
2023/08/17 05:35:32;;;;;;;;;;;17.90;99.90;;;;;;5059037;28;19986;-67
2023/08/17 05:38:01;;;;;;;;;;;18.00;99.90;;;;;;5062805;28;19931;-66
2023/08/17 05:40:30;;;;;;;;;;;18.00;99.90;;;;;;5058110;28;19929;-66
2023/08/17 05:42:58;;;;;;;;;;;18.00;99.90;;;;;;5051635;28;19931;-66
2023/08/17 05:45:27;;;;;;;;;;;18.10;99.90;;;;;;5049739;28;20406;-65
2023/08/17 05:47:54;;;;;;;;;;;18.10;99.90;;;;;;5048236;28;20414;-66
2023/08/17 05:50:22;;;;;;;;;;;18.20;99.90;;;;;;5047636;28;19967;-65
2023/08/17 05:52:50;;;;;;;;;;;18.20;99.90;;;;;;5060938;28;19932;-67
2023/08/17 05:55:18;;;;;;;;;;;18.30;99.90;;;;;;5069036;28;19925;-67
2023/08/17 05:57:46;;;;;;;;;;;18.40;99.90;;;;;;5063555;28;19925;-68
2023/08/17 06:00:14;;;;;;;;;;;18.50;99.90;;;;;;5072096;28;19978;-66
2023/08/17 06:02:49;;;;;;;;;;;18.50;99.90;;;;;;5065409;28;19983;-67
2023/08/17 06:05:17;;;;;;;;;;;18.60;99.90;;;;;;5061359;28;19924;-67
2023/08/17 06:07:45;;;;;;;;;;;18.70;99.90;;;;;;5058079;28;19925;-68
2023/08/17 06:10:13;;;;;;;;;;;18.90;99.90;;;;;;5078478;28;20301;-68
2023/08/17 06:12:41;;;;;;;;;;;19.00;99.90;;;;;;5085737;28;19936;-67
2023/08/17 06:15:09;;;;;;;;;;;19.10;99.90;;;;;;5088030;28;20303;-68
2023/08/17 06:17:37;;;;;;;;;;;19.20;99.90;;;;;;5083558;28;20012;-68
2023/08/17 06:20:09;;;;;;;;;;;19.30;99.90;;;;;;5083012;28;20019;-67
2023/08/17 06:22:37;;;;;;;;;;;19.40;99.90;;;;;;5064716;28;19967;-67
2023/08/17 06:25:05;;;;;;;;;;;19.50;99.90;;;;;;5065722;28;20342;-68
2023/08/17 06:27:34;;;;;;;;;;;19.60;99.90;;;;;;5071197;28;19924;-66
2023/08/17 06:30:03;;;;;;;;;;;19.60;99.90;;;;;;5057524;28;19924;-68
2023/08/17 06:32:31;;;;;;;;;;;19.70;99.90;;;;;;5071929;28;19928;-68
2023/08/17 06:34:59;;;;;;;;;;;19.80;99.90;;;;;;5054072;28;19978;-68
2023/08/17 06:37:28;;;;;;;;;;;19.80;99.90;;;;;;5053891;28;19925;-67
2023/08/17 06:39:56;;;;;;;;;;;20.00;99.90;;;;;;5053546;28;19931;-68
2023/08/17 06:42:24;;;;;;;;;;;20.00;99.90;;;;;;5053589;28;19932;-67
2023/08/17 06:44:51;;;;;;;;;;;20.00;99.90;;;;;;5053877;28;20259;-67
2023/08/17 06:47:19;;;;;;;;;;;20.10;99.90;;;;;;5053364;28;19979;-67
2023/08/17 06:49:47;;;;;;;;;;;20.30;99.90;;;;;;5053334;28;19975;-68
2023/08/17 06:52:15;;;;;;;;;;;20.40;99.90;;;;;;5053983;28;19924;-68
2023/08/17 06:54:44;;;;;;;;;;;20.50;99.90;;;;;;5053352;28;19925;-68
2023/08/17 06:57:12;;;;;;;;;;;20.60;99.90;;;;;;5053405;28;20403;-67
2023/08/17 06:59:40;;;;;;;;;;;20.60;99.90;;;;;;5061369;28;19924;-67
2023/08/17 07:02:08;;;;;;;;;;;20.70;99.90;;;;;;5069485;28;19924;-67
2023/08/17 07:04:35;;;;;;;;;;;20.80;99.90;;;;;;5080671;28;19929;-68
2023/08/17 07:07:04;;;;;;;;;;;20.90;99.90;;;;;;5072448;28;19931;-66
2023/08/17 07:09:31;;;;;;;;;;;21.00;99.90;;;;;;5072455;28;19925;-67
2023/08/17 07:12:01;;;;;;;;;;;21.10;99.90;;;;;;5071830;28;19948;-66
2023/08/17 07:14:29;;;;;;;;;;;21.10;99.90;;;;;;5079090;28;20305;-67
2023/08/17 07:16:56;;;;;;;;;;;21.20;99.90;;;;;;5072946;28;19925;-67
2023/08/17 07:19:24;;;;;;;;;;;21.40;99.90;;;;;;5072847;28;19924;-67
2023/08/17 07:22:12;;;;;;;;;;;21.50;99.90;;;;;;5072771;28;20347;-68
2023/08/17 07:24:39;;;;;;;;;;;21.60;99.90;;;;;;5072760;28;20468;-66
2023/08/17 07:27:09;;;;;;;;;;;21.60;99.90;;;;;;5073170;28;19932;-66
2023/08/17 07:29:36;;;;;;;;;;;21.60;99.90;;;;;;5072320;28;19928;-67
2023/08/17 07:32:05;;;;;;;;;;;21.70;99.90;;;;;;5085915;28;19928;-67
2023/08/17 07:34:34;;;;;;;;;;;21.60;99.90;;;;;;5075964;28;20375;-65
2023/08/17 07:37:02;;;;;;;;;;;21.60;99.90;;;;;;5072359;28;19924;-67
2023/08/17 07:39:29;;;;;;;;;;;21.60;99.90;;;;;;5072176;28;20280;-66
2023/08/17 07:41:57;;;;;;;;;;;21.60;99.90;;;;;;5072609;28;19929;-67
2023/08/17 07:44:28;;;;;;;;;;;21.80;99.90;;;;;;5072457;28;19925;-67
2023/08/17 07:46:55;;;;;;;;;;;22.00;99.90;;;;;;5064730;28;19986;-66
2023/08/17 07:49:24;;;;;;;;;;;22.00;99.90;;;;;;5072205;28;19977;-66
2023/08/17 07:51:59;;;;;;;;;;;22.00;99.90;;;;;;5065237;28;19932;-66
2023/08/17 07:54:27;;;;;;;;;;;21.90;99.90;;;;;;5072293;28;19928;-67
2023/08/17 07:56:55;;;;;;;;;;;21.80;99.90;;;;;;5072518;28;19929;-66
2023/08/17 07:59:23;;;;;;;;;;;21.60;99.90;;;;;;5072036;28;20501;-66
2023/08/17 08:01:52;;;;;;;;;;;21.30;99.90;;;;;;5083509;28;20031;-66
2023/08/17 08:04:20;;;;;;;;;;;21.10;99.90;;;;;;5084898;28;20454;-66
2023/08/17 08:06:48;;;;;;;;;;;20.90;99.90;;;;;;5072092;28;20402;-66
2023/08/17 08:09:16;;;;;;;;;;;20.90;99.90;;;;;;5071933;28;20393;-68
2023/08/17 08:11:43;;;;;;;;;;;20.90;99.90;;;;;;5071550;28;19944;-68
2023/08/17 08:14:11;;;;;;;;;;;20.90;99.90;;;;;;5072398;28;20307;-66
2023/08/17 08:16:39;;;;;;;;;;;20.90;99.90;;;;;;5071883;28;19985;-66
2023/08/17 08:19:08;;;;;;;;;;;21.00;99.90;;;;;;5070225;28;19929;-67
2023/08/17 08:21:36;;;;;;;;;;;21.10;99.90;;;;;;5080263;28;19928;-67
2023/08/17 08:24:04;;;;;;;;;;;21.20;99.90;;;;;;5082174;28;19973;-67
2023/08/17 08:26:37;;;;;;;;;;;21.30;99.90;;;;;;5075961;28;19935;-67
2023/08/17 08:29:05;;;;;;;;;;;21.30;99.90;;;;;;5071706;28;19928;-65
2023/08/17 08:31:33;;;;;;;;;;;21.40;99.90;;;;;;5080017;28;20348;-67
2023/08/17 08:34:00;;;;;;;;;;;21.30;99.90;;;;;;5079089;28;20027;-67
2023/08/17 08:36:30;;;;;;;;;;;21.30;99.90;;;;;;5071825;28;20394;-67
2023/08/17 08:38:57;;;;;;;;;;;21.40;99.90;;;;;;5071214;28;20465;-68
2023/08/17 08:41:27;;;;;;;;;;;21.60;99.90;;;;;;5071524;28;19969;-66
2023/08/17 08:43:55;;;;;;;;;;;21.70;99.90;;;;;;5071161;28;19924;-67
2023/08/17 08:46:25;;;;;;;;;;;21.80;99.90;;;;;;5071654;28;19924;-67
2023/08/17 08:48:53;;;;;;;;;;;21.90;99.90;;;;;;5071057;28;20337;-67
2023/08/17 08:51:24;;;;;;;;;;;22.10;99.90;;;;;;5071094;28;19939;-67
2023/08/17 08:53:55;;;;;;;;;;;22.20;99.90;;;;;;5071023;28;19939;-67
2023/08/17 08:56:24;;;;;;;;;;;22.20;99.90;;;;;;5071491;28;19924;-68
2023/08/17 08:58:53;;;;;;;;;;;22.20;99.90;;;;;;5071009;28;19931;-67
2023/08/17 09:01:22;;;;;;;;;;;22.50;99.90;;;;;;5071152;28;19925;-68
2023/08/17 09:03:50;;;;;;;;;;;22.70;99.90;;;;;;5070853;28;19924;-67
2023/08/17 09:06:19;;;;;;;;;;;23.00;99.90;;;;;;5071335;28;20446;-68
2023/08/17 09:08:48;;;;;;;;;;;23.10;99.90;;;;;;5070705;28;19928;-67
2023/08/17 09:11:17;;;;;;;;;;;23.10;99.90;;;;;;5071354;28;19925;-68
2023/08/17 09:13:45;;;;;;;;;;;23.30;99.90;;;;;;5071019;28;19958;-67
2023/08/17 09:16:12;;;;;;;;;;;23.50;99.90;;;;;;5071180;28;19924;-67
2023/08/17 09:18:41;;;;;;;;;;;23.80;99.90;;;;;;5070053;28;19972;-68
2023/08/17 09:21:08;;;;;;;;;;;23.80;99.90;;;;;;5050982;28;19924;-68
2023/08/17 09:23:40;;;;;;;;;;;24.10;99.90;;;;;;5067481;28;19925;-67
2023/08/17 09:26:09;;;;;;;;;;;24.40;99.90;;;;;;5071249;28;19961;-68
2023/08/17 09:28:41;;;;;;;;;;;24.40;99.90;;;;;;5070954;28;19946;-68
2023/08/17 09:31:09;;;;;;;;;;;24.60;99.90;;;;;;5083751;28;19924;-68
2023/08/17 09:33:37;;;;;;;;;;;24.40;99.90;;;;;;5082265;28;19959;-66
2023/08/17 09:36:04;;;;;;;;;;;24.40;99.90;;;;;;5071123;28;19978;-68
2023/08/17 09:38:32;;;;;;;;;;;24.60;99.90;;;;;;5070990;28;19974;-68
2023/08/17 09:41:00;;;;;;;;;;;24.80;99.90;;;;;;5070502;28;20429;-67
2023/08/17 09:43:30;;;;;;;;;;;24.90;99.90;;;;;;5070612;28;19936;-68
2023/08/17 09:46:01;;;;;;;;;;;25.00;99.90;;;;;;5070614;28;19956;-68
2023/08/17 09:48:29;;;;;;;;;;;25.20;99.90;;;;;;5068733;28;20402;-68
2023/08/17 09:51:01;;;;;;;;;;;25.40;99.90;;;;;;5053487;28;20356;-67
2023/08/17 09:53:30;;;;;;;;;;;25.50;99.90;;;;;;5067033;28;19925;-67
2023/08/17 09:55:58;;;;;;;;;;;25.50;99.90;;;;;;5066776;28;19924;-67
2023/08/17 09:58:25;;;;;;;;;;;25.60;99.90;;;;;;5074736;28;19990;-67
2023/08/17 10:00:59;;;;;;;;;;;25.90;99.90;;;;;;5065887;28;19928;-66
2023/08/17 10:03:29;;;;;;;;;;;25.90;99.90;;;;;;5062505;28;19925;-67
2023/08/17 10:06:00;;;;;;;;;;;25.90;99.90;;;;;;5061500;28;20536;-67
2023/08/17 10:08:29;;;;;;;;;;;26.00;99.90;;;;;;5066614;28;19970;-68
2023/08/17 10:10:57;;;;;;;;;;;26.10;99.90;;;;;;5063053;28;19924;-67
2023/08/17 10:13:29;;;;;;;;;;;26.40;99.90;;;;;;5054614;28;19931;-67
2023/08/17 10:16:00;;;;;;;;;;;26.60;99.90;;;;;;5078160;28;19928;-67
2023/08/17 10:18:30;;;;;;;;;;;26.60;99.90;;;;;;5055411;28;19933;-68
2023/08/17 10:21:01;;;;;;;;;;;26.90;99.90;;;;;;5060149;28;20374;-67
2023/08/17 10:23:30;;;;;;;;;;;26.80;99.90;;;;;;5060656;28;19947;-67
2023/08/17 10:25:58;;;;;;;;;;;27.00;99.90;;;;;;5063227;28;19929;-67
2023/08/17 10:28:26;;;;;;;;;;;27.10;99.90;;;;;;5054758;28;20546;-68
2023/08/17 10:30:54;;;;;;;;;;;27.20;99.90;;;;;;5065619;28;20449;-67
2023/08/17 10:33:22;;;;;;;;;;;27.30;99.90;;;;;;5068140;28;19924;-67
2023/08/17 10:35:51;;;;;;;;;;;27.10;99.90;;;;;;5073096;28;19929;-67
2023/08/17 10:38:19;;;;;;;;;;;27.30;99.90;;;;;;5073327;28;19928;-68
2023/08/17 10:41:06;;;;;;;;;;;27.50;99.90;;;;;;5062607;28;20545;-67
2023/08/17 10:43:34;;;;;;;;;;;27.70;99.90;;;;;;5070007;28;19931;-67
2023/08/17 10:46:15;;;;;;;;;;;27.60;99.90;;;;;;5070935;28;19924;-66
2023/08/17 10:48:44;;;;;;;;;;;27.80;99.90;;;;;;5071345;28;20315;-68
2023/08/17 10:51:13;;;;;;;;;;;27.70;99.90;;;;;;5059329;28;19936;-66
2023/08/17 10:53:43;;;;;;;;;;;27.90;99.90;;;;;;5071220;28;20421;-67
2023/08/17 10:56:12;;;;;;;;;;;28.10;99.90;;;;;;5079747;28;19931;-67
2023/08/17 10:58:40;;;;;;;;;;;28.00;99.90;;;;;;5075295;28;19928;-67
2023/08/17 11:01:09;;;;;;;;;;;28.10;99.90;;;;;;5083370;28;19925;-68
2023/08/17 11:03:37;;;;;;;;;;;28.60;99.90;;;;;;5078387;28;19978;-67
2023/08/17 11:06:17;;;;;;;;;;;28.70;99.90;;;;;;5075583;28;20915;-67
2023/08/17 11:08:55;;;;;;;;;;;28.70;99.90;;;;;;5076132;28;19967;-70
2023/08/17 11:11:24;;;;;;;;;;;28.90;99.90;;;;;;5082085;28;19924;-68
2023/08/17 11:13:53;;;;;;;;;;;29.00;99.90;;;;;;5081040;28;19931;-67
2023/08/17 11:16:24;;;;;;;;;;;29.30;99.90;;;;;;5081840;28;20367;-67
2023/08/17 11:18:53;;;;;;;;;;;29.40;99.90;;;;;;5074524;28;19960;-66
2023/08/17 11:21:22;;;;;;;;;;;29.50;99.90;;;;;;5078104;28;19978;-66
2023/08/17 11:23:53;;;;;;;;;;;29.80;99.90;;;;;;5083508;28;19935;-67
2023/08/17 11:26:21;;;;;;;;;;;29.50;99.90;;;;;;5080633;28;19924;-65
2023/08/17 11:28:48;;;;;;;;;;;29.40;99.90;;;;;;5080721;28;19977;-66
2023/08/17 11:31:16;;;;;;;;;;;29.50;99.90;;;;;;5080538;28;20303;-66
2023/08/17 11:33:46;;;;;;;;;;;29.60;99.90;;;;;;5084071;28;19924;-66
2023/08/17 11:36:15;;;;;;;;;;;29.80;99.90;;;;;;5082170;28;19931;-69
2023/08/17 11:38:44;;;;;;;;;;;29.70;99.90;;;;;;5083790;28;20402;-66
2023/08/17 11:41:13;;;;;;;;;;;29.80;99.90;;;;;;5080082;28;19950;-67
2023/08/17 11:43:44;;;;;;;;;;;29.80;99.90;;;;;;5081976;28;19924;-67
2023/08/17 11:46:12;;;;;;;;;;;29.80;99.90;;;;;;5075653;28;19925;-69
2023/08/17 11:48:40;;;;;;;;;;;30.00;99.90;;;;;;5077490;28;19932;-70
2023/08/17 11:51:08;;;;;;;;;;;30.10;99.90;;;;;;5080683;28;19928;-67
2023/08/17 11:53:36;;;;;;;;;;;30.20;99.90;;;;;;5077573;28;19929;-67
2023/08/17 11:56:05;;;;;;;;;;;30.10;99.90;;;;;;5070492;28;19925;-68
2023/08/17 11:58:38;;;;;;;;;;;30.40;99.90;;;;;;5069783;28;19936;-68
2023/08/17 12:01:09;;;;;;;;;;;30.40;99.90;;;;;;5071495;28;19924;-68
2023/08/17 12:03:37;;;;;;;;;;;30.60;99.90;;;;;;5065170;28;19947;-69
2023/08/17 12:06:05;;;;;;;;;;;31.10;99.90;;;;;;5063823;28;20402;-69
2023/08/17 12:08:34;;;;;;;;;;;31.20;99.90;;;;;;5075131;28;19924;-69
2023/08/17 12:11:03;;;;;;;;;;;31.30;99.90;;;;;;5068251;28;20288;-68
2023/08/17 12:13:32;;;;;;;;;;;31.40;99.90;;;;;;5064686;28;19935;-68
2023/08/17 12:16:00;;;;;;;;;;;31.80;99.90;;;;;;5071757;28;20163;-68
2023/08/17 12:18:28;;;;;;;;;;;32.00;99.90;;;;;;5078771;28;19924;-68
2023/08/17 12:20:56;;;;;;;;;;;32.30;99.90;;;;;;5069444;28;20039;-68
2023/08/17 12:23:24;;;;;;;;;;;32.70;99.90;;;;;;5068675;28;21247;-68
2023/08/17 12:25:55;;;;;;;;;;;33.00;99.90;;;;;;5067895;28;19932;-68
2023/08/17 12:28:24;;;;;;;;;;;33.30;99.90;;;;;;5064771;28;20011;-68
2023/08/17 12:31:00;;;;;;;;;;;33.60;99.90;;;;;;5069460;28;19930;-69
2023/08/17 12:33:28;;;;;;;;;;;33.70;99.90;;;;;;5070091;28;19931;-67
2023/08/17 12:35:56;;;;;;;;;;;33.80;99.90;;;;;;5080862;28;19947;-67
2023/08/17 12:38:24;;;;;;;;;;;34.10;99.90;;;;;;5069244;28;19939;-69
2023/08/17 12:40:52;;;;;;;;;;;33.60;99.90;;;;;;5068631;28;19931;-69
2023/08/17 12:43:20;;;;;;;;;;;33.30;99.90;;;;;;5064591;28;19974;-69
2023/08/17 12:45:48;;;;;;;;;;;32.40;99.90;;;;;;5065771;28;19939;-68
2023/08/17 12:48:17;;;;;;;;;;;31.70;99.90;;;;;;5066970;28;19933;-68
2023/08/17 12:50:45;;;;;;;;;;;31.20;99.90;;;;;;5053450;28;19946;-68
2023/08/17 12:53:13;;;;;;;;;;;30.90;99.90;;;;;;5053564;28;20291;-68
2023/08/17 12:55:40;;;;;;;;;;;30.40;99.90;;;;;;5056891;28;19932;-68
2023/08/17 12:58:08;;;;;;;;;;;30.20;99.90;;;;;;5058592;28;19981;-68
2023/08/17 13:00:36;;;;;;;;;;;30.00;99.90;;;;;;5063074;28;20031;-68
2023/08/17 13:03:04;;;;;;;;;;;30.30;99.90;;;;;;5072910;28;19924;-68
2023/08/17 13:05:34;;;;;;;;;;;30.90;99.90;;;;;;5056504;28;20015;-68
2023/08/17 13:08:02;;;;;;;;;;;31.50;99.90;;;;;;5055072;28;20174;-68
2023/08/17 13:10:29;;;;;;;;;;;32.10;99.90;;;;;;5069368;28;20386;-68
2023/08/17 13:12:59;;;;;;;;;;;32.50;99.90;;;;;;5075103;28;20475;-68
2023/08/17 13:15:27;;;;;;;;;;;32.50;99.90;;;;;;5066924;28;19971;-69
2023/08/17 13:17:55;;;;;;;;;;;32.30;99.90;;;;;;5072421;28;20513;-68
2023/08/17 13:20:23;;;;;;;;;;;32.10;99.90;;;;;;5060390;28;20368;-69
2023/08/17 13:22:52;;;;;;;;;;;32.00;99.90;;;;;;5077159;28;20007;-68
2023/08/17 13:25:20;;;;;;;;;;;31.80;99.90;;;;;;5057318;28;19937;-68
2023/08/17 13:27:48;;;;;;;;;;;31.80;99.90;;;;;;5060593;28;19928;-67
2023/08/17 13:30:16;;;;;;;;;;;31.90;99.90;;;;;;5062234;28;19947;-68
2023/08/17 13:32:44;;;;;;;;;;;32.00;99.90;;;;;;5074551;28;19928;-68
2023/08/17 13:35:14;;;;;;;;;;;32.10;99.90;;;;;;5065877;28;19990;-69
2023/08/17 13:37:42;;;;;;;;;;;31.90;99.90;;;;;;5079850;28;19956;-68
2023/08/17 13:40:12;;;;;;;;;;;31.70;99.90;;;;;;5084810;28;19932;-69
2023/08/17 13:42:39;;;;;;;;;;;31.40;99.90;;;;;;5081462;28;19931;-68
2023/08/17 13:45:08;;;;;;;;;;;31.10;99.90;;;;;;5084661;28;19924;-68
2023/08/17 13:47:36;;;;;;;;;;;30.90;99.90;;;;;;5082847;28;19925;-68
2023/08/17 13:50:04;;;;;;;;;;;30.70;99.90;;;;;;5073530;28;19935;-68
2023/08/17 13:52:50;;;;;;;;;;;30.50;99.90;;;;;;5076067;28;19929;-68
2023/08/17 13:55:19;;;;;;;;;;;30.50;99.90;;;;;;5073632;28;19925;-68
2023/08/17 13:57:47;;;;;;;;;;;29.80;99.90;;;;;;5074536;28;19931;-67
2023/08/17 14:00:15;;;;;;;;;;;29.70;99.90;;;;;;5077083;28;19932;-68
2023/08/17 14:02:44;;;;;;;;;;;30.10;99.90;;;;;;5078557;28;19935;-68
2023/08/17 14:05:12;;;;;;;;;;;30.80;99.90;;;;;;5075855;28;19924;-68
2023/08/17 14:07:39;;;;;;;;;;;31.50;99.90;;;;;;5077026;28;19939;-68
2023/08/17 14:10:08;;;;;;;;;;;32.20;99.90;;;;;;5076374;28;19973;-68
2023/08/17 14:12:46;;;;;;;;;;;32.70;99.90;;;;;;5074536;28;19924;-67
2023/08/17 14:15:14;;;;;;;;;;;33.20;99.90;;;;;;5076461;28;19928;-68
2023/08/17 14:17:42;;;;;;;;;;;33.50;99.90;;;;;;5078328;28;19931;-69
2023/08/17 14:20:11;;;;;;;;;;;33.10;99.90;;;;;;5074204;28;20067;-69
2023/08/17 14:22:40;;;;;;;;;;;33.40;99.90;;;;;;5059149;28;19936;-68
2023/08/17 14:25:08;;;;;;;;;;;32.80;99.90;;;;;;5053503;28;19929;-68